Time;durP1;ratioP1;P1;durP2;ratioP2;P2;SDS_P1;SDS_P2;PMS_P1;PMS_P2;Temp;Humidity;BMP_temperature;BMP_pressure;BME280_temperature;BME280_humidity;BME280_pressure;Samples;Min_cycle;Max_cycle;Signal;HPM_P1;HPM_P2
2021/01/08 00:01:41;;;;;;;19.23;8.48;;;;;;;0.99;100.00;98802.65;4467389;78;43961;-76
2021/01/08 00:07:44;;;;;;;20.77;9.33;;;;;;;0.84;100.00;98798.59;4323845;81;28661;-76
2021/01/08 00:13:47;;;;;;;20.10;8.63;;;;;;;0.92;100.00;98797.72;4357155;81;43927;-75
2021/01/08 00:19:49;;;;;;;19.27;8.90;;;;;;;0.81;100.00;98794.95;4356252;80;43968;-75
2021/01/08 00:25:52;;;;;;;19.92;8.60;;;;;;;0.75;100.00;98799.63;4343989;80;28571;-76
2021/01/08 00:31:54;;;;;;;20.27;9.23;;;;;;;0.71;100.00;98791.21;4342495;80;28564;-76
2021/01/08 00:37:56;;;;;;;19.55;8.95;;;;;;;0.65;100.00;98794.05;4366089;80;43954;-77
2021/01/08 00:43:58;;;;;;;18.60;8.78;;;;;;;0.53;100.00;98797.56;4348696;81;28590;-75
2021/01/08 00:50:00;;;;;;;20.35;9.50;;;;;;;0.56;100.00;98800.38;4349062;80;43942;-75
2021/01/08 00:56:03;;;;;;;19.10;8.03;;;;;;;0.63;100.00;98799.19;4364305;80;43942;-75
2021/01/08 01:02:07;;;;;;;24.43;9.83;;;;;;;0.55;100.00;98807.47;4353152;81;43662;-75
2021/01/08 01:08:09;;;;;;;20.40;9.35;;;;;;;0.47;100.00;98795.63;4335752;80;28653;-75
2021/01/08 01:14:11;;;;;;;25.12;10.35;;;;;;;0.57;100.00;98805.15;4361676;80;42979;-75
2021/01/08 01:20:13;;;;;;;25.43;10.48;;;;;;;0.46;100.00;98811.14;4363587;80;42807;-76
2021/01/08 01:26:15;;;;;;;22.82;9.85;;;;;;;0.51;100.00;98808.83;4347604;80;44474;-75
2021/01/08 01:32:17;;;;;;;22.30;9.40;;;;;;;0.49;100.00;98809.50;4343869;81;28572;-76
2021/01/08 01:38:21;;;;;;;20.50;9.63;;;;;;;0.52;100.00;98801.21;4358404;80;28643;-76
2021/01/08 01:44:24;;;;;;;26.65;9.85;;;;;;;0.64;100.00;98803.47;4393029;80;28544;-75
2021/01/08 01:50:26;;;;;;;24.47;10.40;;;;;;;0.38;100.00;98793.49;4377269;80;42865;-77
2021/01/08 01:56:28;;;;;;;23.32;9.83;;;;;;;0.37;100.00;98783.91;4397407;80;44446;-76
2021/01/08 02:02:45;;;;;;;22.58;9.98;;;;;;;0.50;100.00;98789.98;4389290;80;28636;-75
2021/01/08 02:08:58;;;;;;;22.73;10.03;;;;;;;0.35;100.00;98780.62;4386649;80;28610;-77
2021/01/08 02:15:03;;;;;;;26.97;11.25;;;;;;;0.33;100.00;98772.52;4375142;80;29008;-76
2021/01/08 02:21:10;;;;;;;25.55;10.75;;;;;;;0.22;100.00;98767.92;4364653;80;28561;-76
2021/01/08 02:27:11;;;;;;;24.57;11.43;;;;;;;0.25;100.00;98765.45;4396323;81;43646;-75
2021/01/08 02:33:15;;;;;;;23.50;10.55;;;;;;;0.29;100.00;98765.94;4412311;79;28601;-75
2021/01/08 02:39:18;;;;;;;26.02;10.98;;;;;;;0.33;100.00;98757.48;4377181;80;28544;-76
2021/01/08 02:45:20;;;;;;;24.10;10.32;;;;;;;0.27;100.00;98754.20;4360946;80;44437;-75
2021/01/08 02:51:22;;;;;;;26.33;9.93;;;;;;;0.18;100.00;98763.15;4318422;81;28613;-78
2021/01/08 02:57:26;;;;;;;23.87;10.25;;;;;;;0.07;100.00;98763.03;4294530;80;28563;-77
2021/01/08 03:03:29;;;;;;;24.47;10.40;;;;;;;0.32;100.00;98757.16;4271061;81;42864;-77
2021/01/08 03:09:32;;;;;;;22.05;9.88;;;;;;;0.23;100.00;98753.70;4285391;81;28948;-78
2021/01/08 03:15:34;;;;;;;21.42;9.93;;;;;;;0.19;100.00;98752.41;4301011;82;44455;-77
2021/01/08 03:21:36;;;;;;;18.37;8.73;;;;;;;0.11;100.00;98757.23;4322452;81;28573;-77
2021/01/08 03:27:39;;;;;;;19.45;8.88;;;;;;;0.24;100.00;98758.00;4327627;81;43903;-77
2021/01/08 03:33:41;;;;;;;20.08;8.75;;;;;;;0.24;100.00;98761.97;4323541;81;43972;-77
2021/01/08 03:39:44;;;;;;;19.57;9.58;;;;;;;0.22;100.00;98759.19;4309504;81;43986;-77
2021/01/08 03:45:46;;;;;;;18.42;8.70;;;;;;;0.08;100.00;98768.65;4361484;81;28577;-74
2021/01/08 03:51:48;;;;;;;22.80;8.43;;;;;;;0.09;100.00;98768.97;4358061;81;28581;-75
2021/01/08 03:57:50;;;;;;;17.45;7.40;;;;;;;0.12;100.00;98772.10;4368265;81;44016;-75
2021/01/08 04:03:52;;;;;;;18.07;7.50;;;;;;;0.14;100.00;98771.91;4369068;80;28567;-75
2021/01/08 04:09:54;;;;;;;16.67;6.78;;;;;;;0.13;100.00;98773.75;4369173;80;28967;-75
2021/01/08 04:15:57;;;;;;;16.57;7.10;;;;;;;0.24;100.00;98769.90;4368861;80;28639;-75
2021/01/08 04:21:59;;;;;;;17.90;7.53;;;;;;;0.20;100.00;98766.44;4354466;80;43921;-75
2021/01/08 04:28:02;;;;;;;18.62;7.78;;;;;;;0.25;100.00;98759.64;4361944;80;43907;-75
2021/01/08 04:34:04;;;;;;;15.80;7.05;;;;;;;0.31;100.00;98753.36;4368624;81;28551;-76
2021/01/08 04:40:08;;;;;;;15.63;7.35;;;;;;;0.18;100.00;98752.58;4319402;81;28582;-75
2021/01/08 04:46:32;;;;;;;17.77;7.33;;;;;;;0.10;100.00;98759.53;4261330;82;44237;-75
2021/01/08 04:52:36;;;;;;;15.48;6.83;;;;;;;0.18;100.00;98767.95;4252694;82;43972;-76
2021/01/08 04:58:38;;;;;;;16.37;7.28;;;;;;;0.24;100.00;98758.52;4264257;82;28582;-75
2021/01/08 05:04:41;;;;;;;15.88;6.53;;;;;;;0.16;100.00;98759.86;4275292;82;28609;-76
2021/01/08 05:10:45;;;;;;;13.50;6.22;;;;;;;0.20;100.00;98761.16;4241109;82;28562;-76
2021/01/08 05:16:47;;;;;;;13.72;6.78;;;;;;;0.13;100.00;98761.02;4262832;82;28634;-78
2021/01/08 05:22:51;;;;;;;15.60;7.17;;;;;;;0.14;100.00;98757.38;4250112;82;43969;-78
2021/01/08 05:29:01;;;;;;;14.18;6.95;;;;;;;0.19;100.00;98760.83;4263070;82;28553;-78
2021/01/08 05:35:04;;;;;;;14.10;6.65;;;;;;;0.24;100.00;98763.80;4261885;82;43961;-78
2021/01/08 05:41:11;;;;;;;16.30;7.58;;;;;;;0.25;100.00;98764.94;4312829;81;28591;-76
2021/01/08 05:47:14;;;;;;;13.53;6.42;;;;;;;0.22;100.00;98756.55;4375408;80;28590;-76
2021/01/08 05:53:19;;;;;;;15.90;7.00;;;;;;;0.20;100.00;98759.83;4345195;81;43907;-76
2021/01/08 05:59:25;;;;;;;14.00;6.45;;;;;;;0.14;100.00;98767.95;4348066;80;28554;-75
2021/01/08 06:05:29;;;;;;;15.80;6.58;;;;;;;0.23;100.00;98765.61;4355868;80;43966;-75
2021/01/08 06:11:33;;;;;;;11.12;6.50;;;;;;;0.26;100.00;98764.45;4362643;81;43237;-75
2021/01/08 06:17:38;;;;;;;14.05;6.42;;;;;;;0.33;100.00;98767.23;4346589;81;43927;-76
2021/01/08 06:23:44;;;;;;;13.05;6.72;;;;;;;0.26;100.00;98772.38;4360548;81;43930;-75
2021/01/08 06:29:47;;;;;;;;;;;;;;;0.19;100.00;98776.21;4375818;81;28578;-74
2021/01/08 06:35:52;;;;;;;14.38;6.25;;;;;;;0.18;100.00;98768.44;4361868;81;43931;-74
2021/01/08 06:41:59;;;;;;;12.60;5.92;;;;;;;0.16;100.00;98771.27;4340949;80;43245;-74
2021/01/08 06:48:08;;;;;;;13.43;6.78;;;;;;;0.08;100.00;98775.25;4353981;80;43974;-74
2021/01/08 06:54:13;;;;;;;11.93;6.28;;;;;;;0.04;100.00;98770.80;4347978;81;28552;-73
2021/01/08 07:00:20;;;;;;;13.70;6.53;;;;;;;0.11;100.00;98769.62;4353210;81;44425;-74
2021/01/08 07:06:22;;;;;;;14.03;6.25;;;;;;;0.05;100.00;98776.41;4366079;80;43907;-74
2021/01/08 07:12:26;;;;;;;13.32;6.62;;;;;;;-0.01;100.00;98781.87;4309683;81;43907;-73
2021/01/08 07:18:30;;;;;;;14.23;6.17;;;;;;;0.09;100.00;98783.52;4329850;81;28567;-74
2021/01/08 07:24:38;;;;;;;12.93;6.05;;;;;;;0.43;100.00;98784.23;4311680;81;28598;-73
2021/01/08 07:30:40;;;;;;;12.25;6.15;;;;;;;0.34;100.00;98791.36;4366662;80;28570;-74
2021/01/08 07:36:44;;;;;;;11.83;6.05;;;;;;;0.33;100.00;98795.84;4350988;80;43269;-74
2021/01/08 07:43:01;;;;;;;16.50;7.28;;;;;;;0.50;100.00;98806.34;4341791;81;43946;-74
2021/01/08 07:49:04;;;;;;;13.30;6.40;;;;;;;0.48;100.00;98796.44;4359520;81;28612;-74
2021/01/08 07:55:08;;;;;;;12.43;6.62;;;;;;;0.66;100.00;98807.61;4371828;80;43922;-73
2021/01/08 08:01:15;;;;;;;11.78;6.30;;;;;;;0.61;100.00;98807.28;4376260;81;28572;-74
2021/01/08 08:07:22;;;;;;;12.90;6.33;;;;;;;0.60;100.00;98818.06;4361789;81;43926;-73
2021/01/08 08:13:30;;;;;;;13.83;6.80;;;;;;;0.63;100.00;98809.77;4374338;80;28584;-74
2021/01/08 08:19:33;;;;;;;12.35;6.30;;;;;;;0.64;100.00;98820.19;4376503;80;28569;-74
2021/01/08 08:25:35;;;;;;;13.32;6.47;;;;;;;0.78;100.00;98823.09;4366974;81;28576;-74
2021/01/08 08:31:48;;;;;;;14.50;6.97;;;;;;;0.91;100.00;98828.64;4371000;80;28626;-74
2021/01/08 08:37:56;;;;;;;13.50;6.92;;;;;;;1.06;100.00;98834.03;4360872;81;28592;-75
2021/01/08 08:44:10;;;;;;;14.23;7.58;;;;;;;1.14;100.00;98828.37;4348656;81;28550;-74
2021/01/08 08:50:17;;;;;;;16.75;7.78;;;;;;;1.23;100.00;98831.29;4346525;80;28650;-74
2021/01/08 08:56:19;;;;;;;14.58;7.65;;;;;;;1.29;100.00;98835.87;4367883;80;28576;-75
2021/01/08 09:09:21;;;;;;;15.65;7.90;;;;;;;1.70;100.00;98825.48;3782445;91;28640;-74
2021/01/08 09:15:45;;;;;;;15.35;8.23;;;;;;;2.06;100.00;98826.66;4386851;79;85836;-75
2021/01/08 09:21:51;;;;;;;16.75;7.67;;;;;;;2.23;100.00;98825.98;4332214;81;28567;-76
2021/01/08 09:27:56;;;;;;;17.07;7.47;;;;;;;2.39;100.00;98820.16;4310849;81;28605;-75
2021/01/08 09:33:59;;;;;;;11.33;5.83;;;;;;;2.46;100.00;98829.05;4314739;80;28588;-74
2021/01/08 09:40:15;;;;;;;13.08;6.35;;;;;;;2.62;100.00;98826.70;4327925;81;28546;-77
2021/01/08 09:46:17;;;;;;;14.47;7.27;;;;;;;2.74;100.00;98821.23;4312339;81;28626;-73
2021/01/08 09:52:29;;;;;;;12.33;5.92;;;;;;;2.79;100.00;98820.19;4311973;81;33754;-75
2021/01/08 09:58:34;;;;;;;11.45;5.90;;;;;;;2.84;100.00;98816.98;4232490;83;28549;-76
2021/01/08 10:04:38;;;;;;;12.70;5.87;;;;;;;2.93;100.00;98809.71;4188379;84;28625;-76
2021/01/08 10:10:42;;;;;;;13.55;6.75;;;;;;;2.99;100.00;98810.80;4174501;84;28600;-77
2021/01/08 10:16:44;;;;;;;14.63;5.97;;;;;;;3.00;100.00;98813.77;4275462;82;28552;-75
2021/01/08 10:22:51;;;;;;;10.90;6.08;;;;;;;3.10;100.00;98815.61;4339880;82;28592;-75
2021/01/08 10:28:56;;;;;;;12.45;6.72;;;;;;;3.32;100.00;98814.30;4320182;82;28582;-75
2021/01/08 10:34:59;;;;;;;14.07;6.65;;;;;;;3.26;100.00;98805.25;4271200;82;28575;-76
2021/01/08 10:41:04;;;;;;;12.80;6.50;;;;;;;3.37;100.00;98800.45;4293969;82;28620;-77
2021/01/08 10:47:08;;;;;;;10.97;6.10;;;;;;;3.40;100.00;98798.76;4321681;82;28626;-76
2021/01/08 10:53:14;;;;;;;12.85;6.28;;;;;;;3.56;100.00;98790.50;4311479;82;28616;-75
2021/01/08 10:59:16;;;;;;;10.68;5.85;;;;;;;3.65;100.00;98785.05;4307049;81;28606;-75
2021/01/08 11:11:34;;;;;;;12.20;5.83;;;;;;;3.48;100.00;98778.17;4505396;77;86877;-79
2021/01/08 11:17:41;;;;;;;11.10;5.50;;;;;;;3.39;100.00;98780.64;4302752;81;28548;-76
2021/01/08 11:23:48;;;;;;;10.53;5.30;;;;;;;3.46;100.00;98774.06;4237584;83;28648;-76
2021/01/08 11:29:50;;;;;;;15.05;5.55;;;;;;;3.47;100.00;98773.87;4337000;81;28564;-75
2021/01/08 11:35:55;;;;;;;8.10;4.65;;;;;;;3.64;100.00;98769.59;4270281;82;28658;-76
2021/01/08 11:41:57;;;;;;;10.23;4.80;;;;;;;3.58;100.00;98771.19;4323140;81;28577;-76
2021/01/08 11:47:59;;;;;;;10.23;4.87;;;;;;;3.59;100.00;98767.55;4261404;81;28583;-76
2021/01/08 11:54:04;;;;;;;8.08;4.50;;;;;;;3.49;100.00;98766.53;4276270;81;28544;-80
2021/01/08 12:00:17;;;;;;;8.10;4.20;;;;;;;3.44;92.64;98758.81;4241948;83;28966;-76
2021/01/08 12:06:34;;;;;;;8.05;3.70;;;;;;;3.42;95.32;98758.99;4310070;81;28532;-76
2021/01/08 12:12:40;;;;;;;9.45;4.30;;;;;;;3.41;93.06;98761.86;4250773;83;28655;-76
2021/01/08 12:18:44;;;;;;;8.28;4.15;;;;;;;3.46;92.29;98758.11;4336622;80;28552;-76
2021/01/08 12:24:47;;;;;;;9.00;4.70;;;;;;;3.42;90.58;98766.16;4217642;83;29009;-75
2021/01/08 12:30:55;;;;;;;9.35;4.62;;;;;;;3.62;93.59;98759.17;4222052;81;28640;-76
2021/01/08 12:37:04;;;;;;;8.38;4.30;;;;;;;3.73;94.44;98748.50;4262386;82;28545;-76
2021/01/08 12:43:12;;;;;;;6.12;3.25;;;;;;;3.66;90.82;98760.11;4205479;83;28554;-76
2021/01/08 12:49:14;;;;;;;9.23;4.05;;;;;;;3.57;82.40;98762.91;4296170;82;28590;-75
2021/01/08 12:55:21;;;;;;;8.95;3.80;;;;;;;3.70;85.93;98754.73;4219682;83;28557;-77
2021/01/08 13:01:24;;;;;;;7.47;4.00;;;;;;;3.72;84.09;98754.84;4322872;82;28551;-74
2021/01/08 13:07:26;;;;;;;7.92;3.90;;;;;;;3.72;83.11;98750.84;4262936;83;28623;-76
2021/01/08 13:13:29;;;;;;;8.50;4.78;;;;;;;3.68;84.06;98750.09;4236308;82;28562;-76
2021/01/08 13:19:33;;;;;;;8.95;4.20;;;;;;;3.51;83.43;98756.20;4222602;83;28628;-76
2021/01/08 13:25:39;;;;;;;9.80;5.08;;;;;;;3.37;83.36;98756.59;4280856;83;28627;-75
2021/01/08 13:31:47;;;;;;;11.40;5.65;;;;;;;3.20;87.32;98763.52;4269163;83;28663;-75
2021/01/08 13:37:53;;;;;;;10.95;4.78;;;;;;;3.23;86.29;98762.29;4244260;83;28567;-75
2021/01/08 13:43:54;;;;;;;10.95;4.83;;;;;;;3.23;86.90;98771.59;4350364;81;28616;-74
2021/01/08 13:49:57;;;;;;;10.95;5.00;;;;;;;3.14;89.56;98772.23;4365842;81;28676;-78
2021/01/08 13:55:59;;;;;;;11.20;5.10;;;;;;;3.02;88.26;98775.88;4323710;81;28545;-77
2021/01/08 14:02:01;;;;;;;9.35;3.77;;;;;;;2.78;87.75;98777.39;4319399;82;28577;-76
2021/01/08 14:08:04;;;;;;;7.25;3.52;;;;;;;2.74;82.42;98782.73;4320117;82;28580;-75
2021/01/08 14:14:09;;;;;;;9.68;3.95;;;;;;;2.71;80.13;98784.94;4415742;80;28562;-76
2021/01/08 14:20:12;;;;;;;6.50;3.52;;;;;;;2.59;83.64;98790.72;4419667;80;28567;-76
2021/01/08 14:26:20;;;;;;;7.12;3.58;;;;;;;2.53;85.61;98791.48;4409524;80;28599;-77
2021/01/08 14:32:22;;;;;;;6.30;3.27;;;;;;;2.41;85.08;98797.75;4457619;80;28609;-76
2021/01/08 14:38:24;;;;;;;8.98;3.80;;;;;;;2.30;89.31;98797.72;4376764;78;28564;-76
2021/01/08 14:44:26;;;;;;;7.67;3.58;;;;;;;2.18;90.51;98796.02;4423076;80;28603;-77
2021/01/08 14:50:28;;;;;;;7.95;3.85;;;;;;;2.04;94.51;98792.34;4435165;80;28566;-75
2021/01/08 14:56:30;;;;;;;7.33;3.75;;;;;;;1.88;95.68;98792.01;4311675;82;28598;-78
2021/01/08 15:02:34;;;;;;;10.63;4.22;;;;;;;1.73;99.15;98789.85;4365851;82;28547;-75
2021/01/08 15:08:46;;;;;;;8.25;3.83;;;;;;;1.55;99.73;98788.34;4275155;83;28609;-76
2021/01/08 15:14:49;;;;;;;8.93;4.20;;;;;;;1.29;100.00;98788.71;4295407;82;28538;-76
2021/01/08 15:21:08;;;;;;;8.80;3.87;;;;;;;1.04;100.00;98791.02;4284910;80;28608;-76
2021/01/08 15:27:11;;;;;;;6.78;3.67;;;;;;;0.83;100.00;98792.46;4249237;83;28573;-76
2021/01/08 15:33:14;;;;;;;13.78;4.45;;;;;;;0.66;100.00;98797.51;4291384;82;43250;-75
2021/01/08 15:39:16;;;;;;;7.40;4.08;;;;;;;0.43;100.00;98797.46;4261547;83;28580;-74
2021/01/08 15:45:18;;;;;;;8.45;4.22;;;;;;;0.22;100.00;98798.34;4265849;83;28610;-76
2021/01/08 15:51:28;;;;;;;10.35;4.60;;;;;;;0.08;100.00;98806.47;4334772;82;28577;-75
2021/01/08 15:57:30;;;;;;;9.60;4.42;;;;;;;-0.12;100.00;98808.66;4325065;81;28645;-74
2021/01/08 16:03:34;;;;;;;9.75;4.90;;;;;;;-0.34;100.00;98807.52;4323669;80;42715;-75
2021/01/08 16:09:37;;;;;;;12.15;4.75;;;;;;;-0.47;100.00;98801.41;4333990;81;43222;-76
2021/01/08 16:15:39;;;;;;;10.25;4.72;;;;;;;-0.65;100.00;98810.81;4278854;81;43218;-75
2021/01/08 16:21:43;;;;;;;12.13;5.47;;;;;;;-0.76;100.00;98807.51;4262189;83;28622;-77
2021/01/08 16:27:46;;;;;;;16.60;7.05;;;;;;;-0.82;100.00;98815.26;4235160;83;43933;-74
2021/01/08 16:33:49;;;;;;;18.73;7.70;;;;;;;-0.71;100.00;98818.90;4309492;82;43983;-74
2021/01/08 16:39:51;;;;;;;15.03;6.97;;;;;;;-0.72;100.00;98829.13;4328936;81;43946;-74
2021/01/08 16:45:53;;;;;;;18.87;7.97;;;;;;;-0.84;100.00;98835.21;4244492;81;43934;-75
2021/01/08 16:51:55;;;;;;;21.82;9.80;;;;;;;-0.85;100.00;98837.04;4317278;80;43918;-74
2021/01/08 16:57:57;;;;;;;20.12;9.00;;;;;;;-1.00;100.00;98835.52;4272348;82;43960;-74
2021/01/08 17:03:59;;;;;;;17.17;7.60;;;;;;;-0.87;100.00;98840.34;4295931;80;43912;-75
2021/01/08 17:10:04;;;;;;;19.62;9.08;;;;;;;-1.09;100.00;98831.20;4236646;82;43906;-74
2021/01/08 17:16:07;;;;;;;18.23;8.38;;;;;;;-1.05;100.00;98839.62;4225170;81;28588;-76
2021/01/08 17:22:13;;;;;;;21.65;9.40;;;;;;;-1.17;100.00;98839.93;4300446;82;43951;-74
2021/01/08 17:28:13;;;;;;;20.77;10.20;;;;;;;-1.19;100.00;98847.66;4250034;82;44503;-75
2021/01/08 17:34:15;;;;;;;24.47;10.60;;;;;;;-1.20;100.00;98850.78;4297267;82;43684;-75
2021/01/08 17:40:17;;;;;;;20.75;10.10;;;;;;;-1.21;100.00;98861.00;4230723;83;44441;-75
2021/01/08 17:46:25;;;;;;;23.80;11.05;;;;;;;-1.24;100.00;98865.28;4355906;82;43697;-74
2021/01/08 17:52:30;;;;;;;25.00;11.45;;;;;;;-1.33;100.00;98873.67;4232708;81;43780;-75
2021/01/08 17:58:32;;;;;;;25.95;11.85;;;;;;;-1.35;100.00;98883.56;4306484;82;42871;-76
2021/01/08 18:04:36;;;;;;;24.80;11.90;;;;;;;-1.26;100.00;98881.27;4251351;81;43767;-76
2021/01/08 18:10:39;;;;;;;27.90;12.28;;;;;;;-1.27;100.00;98876.17;4313017;81;43409;-74
2021/01/08 18:16:41;;;;;;;28.70;12.88;;;;;;;-1.29;100.00;98876.83;4320981;81;43409;-74
2021/01/08 18:22:46;;;;;;;29.15;13.13;;;;;;;-1.12;100.00;98871.11;4246724;83;43443;-74
2021/01/08 18:28:49;;;;;;;33.58;13.78;;;;;;;-1.04;100.00;98887.46;4318430;80;44145;-75
2021/01/08 18:34:51;;;;;;;33.73;14.38;;;;;;;-1.01;100.00;98887.13;4318715;81;44116;-75
2021/01/08 18:40:54;;;;;;;35.20;16.90;;;;;;;-0.83;100.00;98883.56;4268273;81;44509;-75
2021/01/08 18:46:56;;;;;;;31.70;14.30;;;;;;;-0.68;100.00;98886.41;4266555;81;44078;-76
2021/01/08 18:52:58;;;;;;;37.63;16.00;;;;;;;-0.57;100.00;98899.30;4321948;82;44458;-77
2021/01/08 18:59:00;;;;;;;30.77;14.07;;;;;;;-0.30;100.00;98890.77;4231522;81;43753;-76
2021/01/08 19:05:05;;;;;;;28.90;13.55;;;;;;;-0.21;100.00;98890.26;4314471;82;43411;-75
2021/01/08 19:11:10;;;;;;;33.10;15.03;;;;;;;-0.39;100.00;98897.83;4317834;81;44131;-76
2021/01/08 19:17:14;;;;;;;32.05;14.78;;;;;;;-0.37;100.00;98891.89;4202066;81;44102;-76
2021/01/08 19:23:18;;;;;;;32.38;15.80;;;;;;;-0.20;100.00;98895.39;4201912;84;44106;-76
2021/01/08 19:29:20;;;;;;;35.03;15.93;;;;;;;-0.27;100.00;98896.19;4184410;84;44339;-77
2021/01/08 19:35:23;;;;;;;32.95;16.50;;;;;;;-0.16;100.00;98903.30;4199929;84;44103;-75
2021/01/08 19:41:25;;;;;;;36.45;17.48;;;;;;;-0.18;100.00;98909.73;4209721;84;44475;-76
2021/01/08 19:47:28;;;;;;;39.33;17.90;;;;;;;-0.05;100.00;98911.89;4197862;84;44453;-77
2021/01/08 19:53:30;;;;;;;46.88;19.80;;;;;;;-0.04;100.00;98916.19;4198814;83;43797;-76
2021/01/08 19:59:32;;;;;;;52.27;23.15;;;;;;;-0.01;100.00;98921.14;4190622;84;44023;-77
2021/01/08 20:05:35;;;;;;;46.95;20.32;;;;;;;0.08;100.00;98922.79;4205971;84;43808;-77
2021/01/08 20:11:37;;;;;;;47.75;21.30;;;;;;;0.02;100.00;98923.47;4200167;84;43759;-78
2021/01/08 20:17:40;;;;;;;43.48;20.80;;;;;;;-0.01;100.00;98918.49;4242400;83;43779;-77
2021/01/08 20:23:42;;;;;;;53.75;22.60;;;;;;;-0.16;100.00;98920.48;4293001;80;44082;-76
2021/01/08 20:29:44;;;;;;;47.88;21.33;;;;;;;-0.15;100.00;98930.58;4259127;81;44450;-76
2021/01/08 20:35:47;;;;;;;53.40;24.12;;;;;;;-0.17;100.00;98926.77;4304537;80;44081;-76
2021/01/08 20:41:49;;;;;;;57.43;24.72;;;;;;;-0.29;100.00;98934.69;4319000;82;42901;-76
2021/01/08 20:47:52;;;;;;;60.45;25.60;;;;;;;-0.14;100.00;98942.80;4319211;82;42872;-76
2021/01/08 20:53:54;;;;;;;61.40;25.23;;;;;;;-0.21;100.00;98950.55;4199159;83;43240;-74
2021/01/08 20:59:58;;;;;;;56.35;25.17;;;;;;;-0.21;100.00;98965.09;4312564;82;43238;-74
2021/01/08 21:06:00;;;;;;;61.60;26.45;;;;;;;-0.11;100.00;98962.77;4231973;81;43229;-74
2021/01/08 21:12:03;;;;;;;59.93;25.72;;;;;;;0.02;100.00;98962.28;4291378;80;28569;-76
2021/01/08 21:18:07;;;;;;;65.52;29.18;;;;;;;0.05;100.00;98975.16;4283294;81;43459;-76
2021/01/08 21:24:09;;;;;;;66.00;27.02;;;;;;;0.16;100.00;98970.06;4318530;81;43447;-76
2021/01/08 21:30:14;;;;;;;68.67;29.80;;;;;;;0.31;100.00;98978.16;4252824;81;44112;-79
2021/01/08 21:36:17;;;;;;;65.00;27.60;;;;;;;0.16;100.00;98982.80;4296434;80;28633;-79
2021/01/08 21:42:19;;;;;;;67.00;27.77;;;;;;;0.26;100.00;98987.91;4251913;83;28555;-80
2021/01/08 21:48:21;;;;;;;64.92;26.85;;;;;;;0.23;100.00;98992.21;4315892;80;43394;-79
2021/01/08 21:54:24;;;;;;;64.75;27.20;;;;;;;0.18;100.00;98997.99;4248210;81;28616;-79
2021/01/08 22:00:31;;;;;;;59.83;25.93;;;;;;;0.22;100.00;98994.53;4320101;80;28604;-80
2021/01/08 22:06:37;;;;;;;60.73;26.73;;;;;;;0.18;100.00;98994.03;4232406;82;28582;-77
2021/01/08 22:12:42;;;;;;;58.75;25.12;;;;;;;0.13;100.00;98992.36;4309200;80;28600;-78
2021/01/08 22:18:44;;;;;;;62.67;27.27;;;;;;;0.13;100.00;99006.42;4246932;81;28593;-79
2021/01/08 22:24:46;;;;;;;56.73;24.98;;;;;;;0.18;100.00;99009.05;4310254;80;43681;-78
2021/01/08 22:30:53;;;;;;;55.45;25.43;;;;;;;0.13;100.00;99003.77;4270954;81;43282;-78
2021/01/08 22:36:55;;;;;;;;;;;;;;;0.06;100.00;99005.92;4319201;80;28540;-80
2021/01/08 22:43:00;;;;;;;56.30;26.12;;;;;;;0.11;100.00;99012.85;4233320;81;43398;-77
2021/01/08 22:49:03;;;;;;;58.67;26.60;;;;;;;0.13;100.00;99009.55;4299857;82;28560;-79
2021/01/08 22:55:07;;;;;;;61.83;27.27;;;;;;;0.02;100.00;99009.38;4285181;81;28612;-77
2021/01/08 23:01:09;;;;;;;62.05;27.27;;;;;;;0.07;100.00;99003.61;4341034;80;43415;-79
2021/01/08 23:07:12;;;;;;;62.85;27.65;;;;;;;0.09;100.00;99011.69;4279808;81;43408;-78
2021/01/08 23:13:15;;;;;;;66.65;28.10;;;;;;;0.24;100.00;99008.41;4309966;80;43772;-79
2021/01/08 23:19:17;;;;;;;63.28;27.48;;;;;;;0.08;100.00;99015.32;4191308;83;43441;-78
2021/01/08 23:25:21;;;;;;;63.73;27.80;;;;;;;0.08;100.00;99021.12;4204632;83;43402;-78
2021/01/08 23:31:23;;;;;;;64.22;28.27;;;;;;;0.13;100.00;99022.77;4246663;81;43413;-78
2021/01/08 23:37:25;;;;;;;59.40;27.00;;;;;;;0.09;100.00;99017.48;4204262;84;43113;-79
2021/01/08 23:43:27;;;;;;;68.60;28.62;;;;;;;0.28;100.00;99015.01;4245038;83;44107;-77
2021/01/08 23:49:30;;;;;;;67.85;27.87;;;;;;;0.11;100.00;99022.95;4247305;83;44090;-76
2021/01/08 23:55:34;;;;;;;66.72;28.25;;;;;;;0.12;100.00;99023.27;4255169;83;43414;-79
